sensor_id;sensor_type;location;lat;lon;timestamp;P1;durP1;ratioP1;P2;durP2;ratioP2
9160;SDS011;4615;51.340;8.288;2022-10-16T00:00:02;3.67;;;2.70;;
9160;SDS011;4615;51.340;8.288;2022-10-16T00:02:30;3.33;;;3.00;;
9160;SDS011;4615;51.340;8.288;2022-10-16T00:04:56;2.73;;;2.40;;
9160;SDS011;4615;51.340;8.288;2022-10-16T00:07:23;2.93;;;2.20;;
9160;SDS011;4615;51.340;8.288;2022-10-16T00:09:49;3.53;;;2.40;;
9160;SDS011;4615;51.340;8.288;2022-10-16T00:12:16;5.10;;;2.70;;
9160;SDS011;4615;51.340;8.288;2022-10-16T00:14:42;3.23;;;2.27;;
9160;SDS011;4615;51.340;8.288;2022-10-16T00:17:09;3.00;;;2.17;;
9160;SDS011;4615;51.340;8.288;2022-10-16T00:19:36;3.80;;;2.10;;
9160;SDS011;4615;51.340;8.288;2022-10-16T00:22:03;2.50;;;2.30;;
9160;SDS011;4615;51.340;8.288;2022-10-16T00:24:29;3.13;;;2.27;;
9160;SDS011;4615;51.340;8.288;2022-10-16T00:26:56;2.77;;;2.20;;
9160;SDS011;4615;51.340;8.288;2022-10-16T00:29:22;3.20;;;2.60;;
9160;SDS011;4615;51.340;8.288;2022-10-16T00:31:48;3.47;;;2.23;;
9160;SDS011;4615;51.340;8.288;2022-10-16T00:34:15;3.53;;;2.50;;
9160;SDS011;4615;51.340;8.288;2022-10-16T00:36:42;3.40;;;2.10;;
9160;SDS011;4615;51.340;8.288;2022-10-16T00:39:09;2.57;;;2.13;;
9160;SDS011;4615;51.340;8.288;2022-10-16T00:41:35;4.47;;;2.30;;
9160;SDS011;4615;51.340;8.288;2022-10-16T00:44:03;2.57;;;2.10;;
9160;SDS011;4615;51.340;8.288;2022-10-16T00:46:31;4.60;;;2.17;;
9160;SDS011;4615;51.340;8.288;2022-10-16T00:49:00;4.27;;;2.10;;
9160;SDS011;4615;51.340;8.288;2022-10-16T00:51:28;4.00;;;2.17;;
9160;SDS011;4615;51.340;8.288;2022-10-16T00:53:57;4.30;;;2.40;;
9160;SDS011;4615;51.340;8.288;2022-10-16T00:56:24;3.17;;;2.40;;
9160;SDS011;4615;51.340;8.288;2022-10-16T00:58:51;3.97;;;2.20;;
9160;SDS011;4615;51.340;8.288;2022-10-16T01:01:17;3.30;;;2.33;;
9160;SDS011;4615;51.340;8.288;2022-10-16T01:03:44;3.50;;;2.43;;
9160;SDS011;4615;51.340;8.288;2022-10-16T01:06:21;4.53;;;2.40;;
9160;SDS011;4615;51.340;8.288;2022-10-16T01:08:53;3.93;;;2.20;;
9160;SDS011;4615;51.340;8.288;2022-10-16T01:11:27;4.00;;;2.40;;
9160;SDS011;4615;51.340;8.288;2022-10-16T01:13:57;3.87;;;2.17;;
9160;SDS011;4615;51.340;8.288;2022-10-16T01:16:28;6.53;;;2.60;;
9160;SDS011;4615;51.340;8.288;2022-10-16T01:18:57;3.50;;;2.70;;
9160;SDS011;4615;51.340;8.288;2022-10-16T01:21:28;5.13;;;2.60;;
9160;SDS011;4615;51.340;8.288;2022-10-16T01:23:57;4.23;;;2.50;;
9160;SDS011;4615;51.340;8.288;2022-10-16T01:29:09;2.73;;;2.40;;
9160;SDS011;4615;51.340;8.288;2022-10-16T01:31:39;2.80;;;2.60;;
9160;SDS011;4615;51.340;8.288;2022-10-16T01:34:08;3.37;;;2.50;;
9160;SDS011;4615;51.340;8.288;2022-10-16T01:36:39;3.57;;;2.70;;
9160;SDS011;4615;51.340;8.288;2022-10-16T01:39:08;6.80;;;2.70;;
9160;SDS011;4615;51.340;8.288;2022-10-16T01:41:36;3.00;;;2.80;;
9160;SDS011;4615;51.340;8.288;2022-10-16T01:44:05;4.90;;;2.60;;
9160;SDS011;4615;51.340;8.288;2022-10-16T01:46:34;4.57;;;3.03;;
9160;SDS011;4615;51.340;8.288;2022-10-16T01:49:02;4.83;;;2.90;;
9160;SDS011;4615;51.340;8.288;2022-10-16T01:51:29;5.07;;;2.80;;
9160;SDS011;4615;51.340;8.288;2022-10-16T01:53:56;4.07;;;3.07;;
9160;SDS011;4615;51.340;8.288;2022-10-16T01:56:23;5.10;;;2.70;;
9160;SDS011;4615;51.340;8.288;2022-10-16T01:58:53;3.63;;;3.33;;
9160;SDS011;4615;51.340;8.288;2022-10-16T02:01:20;3.53;;;2.97;;
9160;SDS011;4615;51.340;8.288;2022-10-16T02:03:49;6.27;;;3.07;;
9160;SDS011;4615;51.340;8.288;2022-10-16T02:06:17;3.33;;;3.03;;
9160;SDS011;4615;51.340;8.288;2022-10-16T02:08:44;3.60;;;3.30;;
9160;SDS011;4615;51.340;8.288;2022-10-16T02:11:11;3.20;;;2.90;;
9160;SDS011;4615;51.340;8.288;2022-10-16T02:13:38;5.27;;;2.90;;
9160;SDS011;4615;51.340;8.288;2022-10-16T02:16:07;8.67;;;3.73;;
9160;SDS011;4615;51.340;8.288;2022-10-16T02:18:35;3.70;;;2.80;;
9160;SDS011;4615;51.340;8.288;2022-10-16T02:21:04;3.97;;;3.30;;
9160;SDS011;4615;51.340;8.288;2022-10-16T02:23:35;4.00;;;3.20;;
9160;SDS011;4615;51.340;8.288;2022-10-16T02:26:04;3.80;;;3.47;;
9160;SDS011;4615;51.340;8.288;2022-10-16T02:28:34;9.60;;;3.80;;
9160;SDS011;4615;51.340;8.288;2022-10-16T02:31:03;3.40;;;3.10;;
9160;SDS011;4615;51.340;8.288;2022-10-16T02:33:30;3.93;;;2.77;;
9160;SDS011;4615;51.340;8.288;2022-10-16T02:35:58;4.93;;;3.70;;
9160;SDS011;4615;51.340;8.288;2022-10-16T02:38:26;7.67;;;3.20;;
9160;SDS011;4615;51.340;8.288;2022-10-16T02:40:55;3.33;;;3.00;;
9160;SDS011;4615;51.340;8.288;2022-10-16T02:43:21;4.47;;;3.07;;
9160;SDS011;4615;51.340;8.288;2022-10-16T02:45:48;3.60;;;3.27;;
9160;SDS011;4615;51.340;8.288;2022-10-16T02:48:14;4.50;;;3.47;;
9160;SDS011;4615;51.340;8.288;2022-10-16T02:50:40;3.93;;;3.40;;
9160;SDS011;4615;51.340;8.288;2022-10-16T02:53:07;3.70;;;3.40;;
9160;SDS011;4615;51.340;8.288;2022-10-16T02:55:35;3.57;;;3.27;;
9160;SDS011;4615;51.340;8.288;2022-10-16T02:58:01;4.57;;;3.67;;
9160;SDS011;4615;51.340;8.288;2022-10-16T03:00:27;3.80;;;3.30;;
9160;SDS011;4615;51.340;8.288;2022-10-16T03:02:54;3.47;;;3.17;;
9160;SDS011;4615;51.340;8.288;2022-10-16T03:05:21;4.63;;;3.33;;
9160;SDS011;4615;51.340;8.288;2022-10-16T03:07:47;3.90;;;3.53;;
9160;SDS011;4615;51.340;8.288;2022-10-16T03:10:16;4.73;;;3.47;;
9160;SDS011;4615;51.340;8.288;2022-10-16T03:12:44;3.30;;;3.00;;
9160;SDS011;4615;51.340;8.288;2022-10-16T03:15:10;2.97;;;2.77;;
9160;SDS011;4615;51.340;8.288;2022-10-16T03:17:37;5.70;;;3.30;;
9160;SDS011;4615;51.340;8.288;2022-10-16T03:20:03;4.10;;;3.00;;
9160;SDS011;4615;51.340;8.288;2022-10-16T03:22:30;3.70;;;3.40;;
9160;SDS011;4615;51.340;8.288;2022-10-16T03:24:56;3.63;;;3.17;;
9160;SDS011;4615;51.340;8.288;2022-10-16T03:27:22;3.90;;;2.77;;
9160;SDS011;4615;51.340;8.288;2022-10-16T03:29:50;6.90;;;3.30;;
9160;SDS011;4615;51.340;8.288;2022-10-16T03:32:17;6.47;;;2.90;;
9160;SDS011;4615;51.340;8.288;2022-10-16T03:34:43;3.03;;;2.40;;
9160;SDS011;4615;51.340;8.288;2022-10-16T03:37:09;7.73;;;2.90;;
9160;SDS011;4615;51.340;8.288;2022-10-16T03:39:36;3.93;;;3.10;;
9160;SDS011;4615;51.340;8.288;2022-10-16T03:42:02;4.23;;;3.00;;
9160;SDS011;4615;51.340;8.288;2022-10-16T03:44:29;6.00;;;2.77;;
9160;SDS011;4615;51.340;8.288;2022-10-16T03:46:56;2.63;;;2.43;;
9160;SDS011;4615;51.340;8.288;2022-10-16T03:49:23;2.87;;;2.57;;
9160;SDS011;4615;51.340;8.288;2022-10-16T03:51:49;2.73;;;2.50;;
9160;SDS011;4615;51.340;8.288;2022-10-16T03:54:16;3.07;;;2.50;;
9160;SDS011;4615;51.340;8.288;2022-10-16T03:56:42;2.80;;;2.60;;
9160;SDS011;4615;51.340;8.288;2022-10-16T03:59:09;2.70;;;2.50;;
9160;SDS011;4615;51.340;8.288;2022-10-16T04:01:35;3.80;;;2.60;;
9160;SDS011;4615;51.340;8.288;2022-10-16T04:04:03;5.43;;;2.60;;
9160;SDS011;4615;51.340;8.288;2022-10-16T04:06:29;2.63;;;2.43;;
9160;SDS011;4615;51.340;8.288;2022-10-16T04:08:55;2.50;;;2.30;;
9160;SDS011;4615;51.340;8.288;2022-10-16T04:11:22;3.43;;;2.33;;
9160;SDS011;4615;51.340;8.288;2022-10-16T04:13:48;2.60;;;2.40;;
9160;SDS011;4615;51.340;8.288;2022-10-16T04:16:15;3.23;;;2.20;;
9160;SDS011;4615;51.340;8.288;2022-10-16T04:18:41;2.30;;;2.10;;
9160;SDS011;4615;51.340;8.288;2022-10-16T04:21:09;2.73;;;2.53;;
9160;SDS011;4615;51.340;8.288;2022-10-16T04:23:35;3.17;;;2.70;;
9160;SDS011;4615;51.340;8.288;2022-10-16T04:26:01;3.53;;;2.40;;
9160;SDS011;4615;51.340;8.288;2022-10-16T04:28:28;2.30;;;2.10;;
9160;SDS011;4615;51.340;8.288;2022-10-16T04:30:54;5.20;;;2.57;;
9160;SDS011;4615;51.340;8.288;2022-10-16T04:33:21;2.40;;;2.20;;
9160;SDS011;4615;51.340;8.288;2022-10-16T04:35:47;4.30;;;2.30;;
9160;SDS011;4615;51.340;8.288;2022-10-16T04:38:15;6.27;;;2.70;;
9160;SDS011;4615;51.340;8.288;2022-10-16T04:40:41;3.30;;;2.50;;
9160;SDS011;4615;51.340;8.288;2022-10-16T04:43:08;3.47;;;2.60;;
9160;SDS011;4615;51.340;8.288;2022-10-16T04:45:34;2.80;;;2.17;;
9160;SDS011;4615;51.340;8.288;2022-10-16T04:48:00;3.03;;;2.40;;
9160;SDS011;4615;51.340;8.288;2022-10-16T04:50:27;2.70;;;2.50;;
9160;SDS011;4615;51.340;8.288;2022-10-16T04:52:53;2.63;;;2.43;;
9160;SDS011;4615;51.340;8.288;2022-10-16T04:55:21;2.57;;;2.37;;
9160;SDS011;4615;51.340;8.288;2022-10-16T04:57:47;3.13;;;2.20;;
9160;SDS011;4615;51.340;8.288;2022-10-16T05:00:14;4.47;;;2.40;;
9160;SDS011;4615;51.340;8.288;2022-10-16T05:02:41;2.80;;;2.47;;
9160;SDS011;4615;51.340;8.288;2022-10-16T05:05:07;3.97;;;2.77;;
9160;SDS011;4615;51.340;8.288;2022-10-16T05:07:34;3.00;;;2.40;;
9160;SDS011;4615;51.340;8.288;2022-10-16T05:10:00;2.50;;;2.30;;
9160;SDS011;4615;51.340;8.288;2022-10-16T05:12:28;2.17;;;2.00;;
9160;SDS011;4615;51.340;8.288;2022-10-16T05:14:54;2.43;;;2.00;;
9160;SDS011;4615;51.340;8.288;2022-10-16T05:17:23;2.50;;;2.30;;
9160;SDS011;4615;51.340;8.288;2022-10-16T05:19:49;5.20;;;2.43;;
9160;SDS011;4615;51.340;8.288;2022-10-16T05:22:16;2.63;;;2.00;;
9160;SDS011;4615;51.340;8.288;2022-10-16T05:24:42;3.73;;;2.00;;
9160;SDS011;4615;51.340;8.288;2022-10-16T05:27:09;2.50;;;2.30;;
9160;SDS011;4615;51.340;8.288;2022-10-16T05:29:37;3.57;;;2.50;;
9160;SDS011;4615;51.340;8.288;2022-10-16T05:32:03;3.33;;;2.63;;
9160;SDS011;4615;51.340;8.288;2022-10-16T05:34:30;3.20;;;2.50;;
9160;SDS011;4615;51.340;8.288;2022-10-16T05:36:56;3.10;;;2.30;;
9160;SDS011;4615;51.340;8.288;2022-10-16T05:39:22;2.87;;;2.43;;
9160;SDS011;4615;51.340;8.288;2022-10-16T05:41:49;3.07;;;2.43;;
9160;SDS011;4615;51.340;8.288;2022-10-16T05:44:15;3.13;;;2.90;;
9160;SDS011;4615;51.340;8.288;2022-10-16T05:46:43;3.50;;;2.40;;
9160;SDS011;4615;51.340;8.288;2022-10-16T05:49:09;3.50;;;3.17;;
9160;SDS011;4615;51.340;8.288;2022-10-16T05:51:36;3.20;;;2.90;;
9160;SDS011;4615;51.340;8.288;2022-10-16T05:54:02;4.63;;;2.90;;
9160;SDS011;4615;51.340;8.288;2022-10-16T05:56:29;3.90;;;2.97;;
9160;SDS011;4615;51.340;8.288;2022-10-16T05:58:55;2.60;;;2.30;;
9160;SDS011;4615;51.340;8.288;2022-10-16T06:01:21;2.80;;;2.60;;
9160;SDS011;4615;51.340;8.288;2022-10-16T06:03:50;3.80;;;2.57;;
9160;SDS011;4615;51.340;8.288;2022-10-16T06:06:17;3.80;;;2.50;;
9160;SDS011;4615;51.340;8.288;2022-10-16T06:08:45;4.97;;;2.77;;
9160;SDS011;4615;51.340;8.288;2022-10-16T06:11:12;3.07;;;2.37;;
9160;SDS011;4615;51.340;8.288;2022-10-16T06:13:39;2.77;;;2.30;;
9160;SDS011;4615;51.340;8.288;2022-10-16T06:16:07;3.13;;;2.23;;
9160;SDS011;4615;51.340;8.288;2022-10-16T06:18:34;3.00;;;2.40;;
9160;SDS011;4615;51.340;8.288;2022-10-16T06:21:06;2.20;;;2.00;;
9160;SDS011;4615;51.340;8.288;2022-10-16T06:23:32;2.30;;;2.10;;
9160;SDS011;4615;51.340;8.288;2022-10-16T06:26:03;2.93;;;2.50;;
9160;SDS011;4615;51.340;8.288;2022-10-16T06:28:30;2.80;;;2.07;;
9160;SDS011;4615;51.340;8.288;2022-10-16T06:30:58;3.20;;;2.30;;
9160;SDS011;4615;51.340;8.288;2022-10-16T06:33:24;3.40;;;2.10;;
9160;SDS011;4615;51.340;8.288;2022-10-16T06:35:51;3.90;;;2.20;;
9160;SDS011;4615;51.340;8.288;2022-10-16T06:38:19;2.23;;;2.10;;
9160;SDS011;4615;51.340;8.288;2022-10-16T06:40:45;3.13;;;2.00;;
9160;SDS011;4615;51.340;8.288;2022-10-16T06:43:13;2.43;;;1.80;;
9160;SDS011;4615;51.340;8.288;2022-10-16T06:45:40;2.40;;;2.20;;
9160;SDS011;4615;51.340;8.288;2022-10-16T06:48:06;2.00;;;1.90;;
9160;SDS011;4615;51.340;8.288;2022-10-16T06:50:32;2.07;;;1.87;;
9160;SDS011;4615;51.340;8.288;2022-10-16T06:52:59;3.03;;;1.97;;
9160;SDS011;4615;51.340;8.288;2022-10-16T06:55:26;2.20;;;2.00;;
9160;SDS011;4615;51.340;8.288;2022-10-16T06:57:53;7.93;;;2.10;;
9160;SDS011;4615;51.340;8.288;2022-10-16T07:00:19;2.63;;;2.00;;
9160;SDS011;4615;51.340;8.288;2022-10-16T07:02:46;3.63;;;2.27;;
9160;SDS011;4615;51.340;8.288;2022-10-16T07:05:12;2.87;;;2.07;;
9160;SDS011;4615;51.340;8.288;2022-10-16T07:07:38;2.67;;;2.13;;
9160;SDS011;4615;51.340;8.288;2022-10-16T07:10:05;3.87;;;2.00;;
9160;SDS011;4615;51.340;8.288;2022-10-16T07:12:33;3.57;;;2.10;;
9160;SDS011;4615;51.340;8.288;2022-10-16T07:14:59;2.43;;;2.00;;
9160;SDS011;4615;51.340;8.288;2022-10-16T07:17:26;1.93;;;1.63;;
9160;SDS011;4615;51.340;8.288;2022-10-16T07:19:52;3.27;;;1.93;;
9160;SDS011;4615;51.340;8.288;2022-10-16T07:22:20;3.40;;;1.87;;
9160;SDS011;4615;51.340;8.288;2022-10-16T07:24:46;2.33;;;1.83;;
9160;SDS011;4615;51.340;8.288;2022-10-16T07:27:13;2.97;;;2.17;;
9160;SDS011;4615;51.340;8.288;2022-10-16T07:29:42;1.70;;;1.60;;
9160;SDS011;4615;51.340;8.288;2022-10-16T07:32:08;4.80;;;1.80;;
9160;SDS011;4615;51.340;8.288;2022-10-16T07:34:34;4.40;;;2.27;;
9160;SDS011;4615;51.340;8.288;2022-10-16T07:37:01;1.92;;;1.83;;
9160;SDS011;4615;51.340;8.288;2022-10-16T07:39:27;2.60;;;2.00;;
9160;SDS011;4615;51.340;8.288;2022-10-16T07:41:54;2.27;;;1.80;;
9160;SDS011;4615;51.340;8.288;2022-10-16T07:44:20;1.77;;;1.67;;
9160;SDS011;4615;51.340;8.288;2022-10-16T07:46:48;1.83;;;1.73;;
9160;SDS011;4615;51.340;8.288;2022-10-16T07:49:14;3.30;;;2.03;;
9160;SDS011;4615;51.340;8.288;2022-10-16T07:51:41;2.17;;;1.73;;
9160;SDS011;4615;51.340;8.288;2022-10-16T07:54:07;2.40;;;2.00;;
9160;SDS011;4615;51.340;8.288;2022-10-16T07:56:34;4.70;;;2.40;;
9160;SDS011;4615;51.340;8.288;2022-10-16T07:59:00;2.60;;;1.90;;
9160;SDS011;4615;51.340;8.288;2022-10-16T08:01:27;1.93;;;1.67;;
9160;SDS011;4615;51.340;8.288;2022-10-16T08:03:54;2.73;;;1.90;;
9160;SDS011;4615;51.340;8.288;2022-10-16T08:06:21;4.60;;;1.90;;
9160;SDS011;4615;51.340;8.288;2022-10-16T08:08:48;3.37;;;1.70;;
9160;SDS011;4615;51.340;8.288;2022-10-16T08:11:14;3.23;;;1.77;;
9160;SDS011;4615;51.340;8.288;2022-10-16T08:13:41;4.53;;;1.80;;
9160;SDS011;4615;51.340;8.288;2022-10-16T08:16:07;1.90;;;1.80;;
9160;SDS011;4615;51.340;8.288;2022-10-16T08:18:35;1.83;;;1.60;;
9160;SDS011;4615;51.340;8.288;2022-10-16T08:21:03;1.87;;;1.60;;
9160;SDS011;4615;51.340;8.288;2022-10-16T08:23:30;2.93;;;1.70;;
9160;SDS011;4615;51.340;8.288;2022-10-16T08:26:01;3.23;;;1.60;;
9160;SDS011;4615;51.340;8.288;2022-10-16T08:28:28;1.70;;;1.60;;
9160;SDS011;4615;51.340;8.288;2022-10-16T08:30:55;1.40;;;1.30;;
9160;SDS011;4615;51.340;8.288;2022-10-16T08:33:22;2.83;;;1.70;;
9160;SDS011;4615;51.340;8.288;2022-10-16T08:35:51;1.50;;;1.40;;
9160;SDS011;4615;51.340;8.288;2022-10-16T08:38:19;1.83;;;1.50;;
9160;SDS011;4615;51.340;8.288;2022-10-16T08:40:46;2.37;;;1.50;;
9160;SDS011;4615;51.340;8.288;2022-10-16T08:46:04;2.50;;;1.53;;
9160;SDS011;4615;51.340;8.288;2022-10-16T08:48:35;2.27;;;1.40;;
9160;SDS011;4615;51.340;8.288;2022-10-16T08:51:07;2.23;;;1.50;;
9160;SDS011;4615;51.340;8.288;2022-10-16T08:53:38;1.60;;;1.50;;
9160;SDS011;4615;51.340;8.288;2022-10-16T08:56:06;2.30;;;2.10;;
9160;SDS011;4615;51.340;8.288;2022-10-16T08:58:33;1.83;;;1.50;;
9160;SDS011;4615;51.340;8.288;2022-10-16T09:01:00;1.93;;;1.50;;
9160;SDS011;4615;51.340;8.288;2022-10-16T09:03:36;4.23;;;1.43;;
9160;SDS011;4615;51.340;8.288;2022-10-16T09:06:11;3.23;;;1.30;;
9160;SDS011;4615;51.340;8.288;2022-10-16T09:08:45;3.00;;;1.20;;
9160;SDS011;4615;51.340;8.288;2022-10-16T09:11:14;1.50;;;1.37;;
9160;SDS011;4615;51.340;8.288;2022-10-16T09:13:47;1.77;;;1.27;;
9160;SDS011;4615;51.340;8.288;2022-10-16T09:16:15;2.57;;;1.23;;
9160;SDS011;4615;51.340;8.288;2022-10-16T09:18:45;1.80;;;1.33;;
9160;SDS011;4615;51.340;8.288;2022-10-16T09:21:14;2.13;;;1.30;;
9160;SDS011;4615;51.340;8.288;2022-10-16T09:23:44;1.27;;;1.17;;
9160;SDS011;4615;51.340;8.288;2022-10-16T09:26:11;2.87;;;1.30;;
9160;SDS011;4615;51.340;8.288;2022-10-16T09:28:38;2.20;;;1.00;;
9160;SDS011;4615;51.340;8.288;2022-10-16T09:31:05;1.43;;;1.27;;
9160;SDS011;4615;51.340;8.288;2022-10-16T09:33:33;4.10;;;1.43;;
9160;SDS011;4615;51.340;8.288;2022-10-16T09:35:59;1.80;;;1.10;;
9160;SDS011;4615;51.340;8.288;2022-10-16T09:38:28;1.73;;;1.10;;
9160;SDS011;4615;51.340;8.288;2022-10-16T09:40:57;2.20;;;1.07;;
9160;SDS011;4615;51.340;8.288;2022-10-16T09:43:24;2.23;;;1.27;;
9160;SDS011;4615;51.340;8.288;2022-10-16T09:45:53;1.53;;;1.00;;
9160;SDS011;4615;51.340;8.288;2022-10-16T09:48:20;0.90;;;0.90;;
9160;SDS011;4615;51.340;8.288;2022-10-16T09:50:54;2.00;;;1.00;;
9160;SDS011;4615;51.340;8.288;2022-10-16T09:53:21;1.80;;;1.23;;
9160;SDS011;4615;51.340;8.288;2022-10-16T09:55:48;1.17;;;0.90;;
9160;SDS011;4615;51.340;8.288;2022-10-16T09:58:16;2.47;;;0.90;;
9160;SDS011;4615;51.340;8.288;2022-10-16T10:00:48;2.00;;;1.10;;
9160;SDS011;4615;51.340;8.288;2022-10-16T10:03:15;2.60;;;1.00;;
9160;SDS011;4615;51.340;8.288;2022-10-16T10:05:50;2.43;;;1.20;;
9160;SDS011;4615;51.340;8.288;2022-10-16T10:08:16;1.27;;;0.90;;
9160;SDS011;4615;51.340;8.288;2022-10-16T10:10:44;1.00;;;0.90;;
9160;SDS011;4615;51.340;8.288;2022-10-16T10:13:18;2.00;;;0.93;;
9160;SDS011;4615;51.340;8.288;2022-10-16T10:15:45;1.97;;;0.80;;
9160;SDS011;4615;51.340;8.288;2022-10-16T10:18:15;1.23;;;0.80;;
9160;SDS011;4615;51.340;8.288;2022-10-16T10:20:42;1.67;;;1.10;;
9160;SDS011;4615;51.340;8.288;2022-10-16T10:23:19;1.10;;;0.73;;
9160;SDS011;4615;51.340;8.288;2022-10-16T10:25:49;1.50;;;1.10;;
9160;SDS011;4615;51.340;8.288;2022-10-16T10:28:27;1.07;;;0.73;;
9160;SDS011;4615;51.340;8.288;2022-10-16T10:30:56;2.37;;;1.00;;
9160;SDS011;4615;51.340;8.288;2022-10-16T10:33:25;2.03;;;1.10;;
9160;SDS011;4615;51.340;8.288;2022-10-16T10:35:56;0.80;;;0.80;;
9160;SDS011;4615;51.340;8.288;2022-10-16T10:38:28;2.97;;;0.90;;
9160;SDS011;4615;51.340;8.288;2022-10-16T10:40:59;4.30;;;1.10;;
9160;SDS011;4615;51.340;8.288;2022-10-16T10:43:32;3.87;;;0.93;;
9160;SDS011;4615;51.340;8.288;2022-10-16T10:46:04;2.83;;;1.10;;
9160;SDS011;4615;51.340;8.288;2022-10-16T10:48:41;1.00;;;0.90;;
9160;SDS011;4615;51.340;8.288;2022-10-16T10:51:13;1.30;;;1.07;;
9160;SDS011;4615;51.340;8.288;2022-10-16T10:53:42;1.83;;;1.00;;
9160;SDS011;4615;51.340;8.288;2022-10-16T10:56:14;2.67;;;1.00;;
9160;SDS011;4615;51.340;8.288;2022-10-16T10:58:47;1.10;;;1.00;;
9160;SDS011;4615;51.340;8.288;2022-10-16T11:01:16;1.37;;;0.87;;
9160;SDS011;4615;51.340;8.288;2022-10-16T11:06:26;1.00;;;0.90;;
9160;SDS011;4615;51.340;8.288;2022-10-16T11:08:55;1.50;;;0.97;;
9160;SDS011;4615;51.340;8.288;2022-10-16T11:11:24;0.80;;;0.80;;
9160;SDS011;4615;51.340;8.288;2022-10-16T11:13:54;1.03;;;0.93;;
9160;SDS011;4615;51.340;8.288;2022-10-16T11:16:23;2.53;;;0.97;;
9160;SDS011;4615;51.340;8.288;2022-10-16T11:18:55;2.97;;;1.97;;
9160;SDS011;4615;51.340;8.288;2022-10-16T11:21:24;1.10;;;1.00;;
9160;SDS011;4615;51.340;8.288;2022-10-16T11:23:52;2.43;;;1.07;;
9160;SDS011;4615;51.340;8.288;2022-10-16T11:26:19;1.33;;;0.90;;
9160;SDS011;4615;51.340;8.288;2022-10-16T11:28:47;2.53;;;1.30;;
9160;SDS011;4615;51.340;8.288;2022-10-16T11:31:17;3.17;;;2.63;;
9160;SDS011;4615;51.340;8.288;2022-10-16T11:33:46;1.40;;;1.10;;
9160;SDS011;4615;51.340;8.288;2022-10-16T11:36:14;1.50;;;1.30;;
9160;SDS011;4615;51.340;8.288;2022-10-16T11:38:43;0.80;;;0.80;;
9160;SDS011;4615;51.340;8.288;2022-10-16T11:41:15;1.50;;;0.80;;
9160;SDS011;4615;51.340;8.288;2022-10-16T11:43:45;2.13;;;1.07;;
9160;SDS011;4615;51.340;8.288;2022-10-16T11:46:16;1.33;;;1.00;;
9160;SDS011;4615;51.340;8.288;2022-10-16T11:48:45;1.73;;;1.00;;
9160;SDS011;4615;51.340;8.288;2022-10-16T11:51:14;2.07;;;1.00;;
9160;SDS011;4615;51.340;8.288;2022-10-16T11:53:44;1.17;;;0.80;;
9160;SDS011;4615;51.340;8.288;2022-10-16T11:56:12;3.63;;;1.20;;
9160;SDS011;4615;51.340;8.288;2022-10-16T11:58:40;3.10;;;1.10;;
9160;SDS011;4615;51.340;8.288;2022-10-16T12:01:15;0.70;;;0.70;;
9160;SDS011;4615;51.340;8.288;2022-10-16T12:03:45;2.43;;;1.00;;
9160;SDS011;4615;51.340;8.288;2022-10-16T12:06:23;1.57;;;0.90;;
9160;SDS011;4615;51.340;8.288;2022-10-16T12:08:51;1.77;;;0.80;;
9160;SDS011;4615;51.340;8.288;2022-10-16T12:11:22;2.97;;;0.90;;
9160;SDS011;4615;51.340;8.288;2022-10-16T12:13:49;1.17;;;0.80;;
9160;SDS011;4615;51.340;8.288;2022-10-16T12:16:22;1.90;;;0.80;;
9160;SDS011;4615;51.340;8.288;2022-10-16T12:19:02;1.43;;;0.80;;
9160;SDS011;4615;51.340;8.288;2022-10-16T12:21:30;0.80;;;0.80;;
9160;SDS011;4615;51.340;8.288;2022-10-16T12:23:58;3.03;;;1.07;;
9160;SDS011;4615;51.340;8.288;2022-10-16T12:26:25;0.60;;;0.60;;
9160;SDS011;4615;51.340;8.288;2022-10-16T12:28:51;1.70;;;0.70;;
9160;SDS011;4615;51.340;8.288;2022-10-16T12:31:18;1.43;;;0.80;;
9160;SDS011;4615;51.340;8.288;2022-10-16T12:33:53;2.33;;;0.80;;
9160;SDS011;4615;51.340;8.288;2022-10-16T12:36:26;0.93;;;0.60;;
9160;SDS011;4615;51.340;8.288;2022-10-16T12:38:53;3.47;;;1.13;;
9160;SDS011;4615;51.340;8.288;2022-10-16T12:41:24;0.83;;;0.83;;
9160;SDS011;4615;51.340;8.288;2022-10-16T12:43:50;1.77;;;0.90;;
9160;SDS011;4615;51.340;8.288;2022-10-16T12:46:24;1.77;;;0.90;;
9160;SDS011;4615;51.340;8.288;2022-10-16T12:49:20;3.30;;;0.87;;
9160;SDS011;4615;51.340;8.288;2022-10-16T12:51:47;2.23;;;1.00;;
9160;SDS011;4615;51.340;8.288;2022-10-16T12:54:14;0.80;;;0.80;;
9160;SDS011;4615;51.340;8.288;2022-10-16T12:56:44;3.83;;;0.93;;
9160;SDS011;4615;51.340;8.288;2022-10-16T12:59:15;3.53;;;0.67;;
9160;SDS011;4615;51.340;8.288;2022-10-16T13:01:51;1.53;;;0.80;;
9160;SDS011;4615;51.340;8.288;2022-10-16T13:04:29;1.90;;;0.83;;
9160;SDS011;4615;51.340;8.288;2022-10-16T13:07:00;1.73;;;0.83;;
9160;SDS011;4615;51.340;8.288;2022-10-16T13:09:31;2.97;;;0.80;;
9160;SDS011;4615;51.340;8.288;2022-10-16T13:12:05;1.30;;;1.20;;
9160;SDS011;4615;51.340;8.288;2022-10-16T13:14:43;2.60;;;1.03;;
9160;SDS011;4615;51.340;8.288;2022-10-16T13:17:14;0.70;;;0.70;;
9160;SDS011;4615;51.340;8.288;2022-10-16T13:19:45;1.70;;;0.70;;
9160;SDS011;4615;51.340;8.288;2022-10-16T13:22:15;1.23;;;0.80;;
9160;SDS011;4615;51.340;8.288;2022-10-16T13:24:48;0.87;;;0.80;;
9160;SDS011;4615;51.340;8.288;2022-10-16T13:27:22;2.97;;;0.93;;
9160;SDS011;4615;51.340;8.288;2022-10-16T13:29:52;1.27;;;0.80;;
9160;SDS011;4615;51.340;8.288;2022-10-16T13:32:20;0.93;;;0.70;;
9160;SDS011;4615;51.340;8.288;2022-10-16T13:34:48;0.87;;;0.63;;
9160;SDS011;4615;51.340;8.288;2022-10-16T13:37:17;0.80;;;0.60;;
9160;SDS011;4615;51.340;8.288;2022-10-16T13:39:44;1.40;;;0.70;;
9160;SDS011;4615;51.340;8.288;2022-10-16T13:42:11;2.77;;;1.00;;
9160;SDS011;4615;51.340;8.288;2022-10-16T13:44:39;1.40;;;0.87;;
9160;SDS011;4615;51.340;8.288;2022-10-16T13:47:10;0.70;;;0.70;;
9160;SDS011;4615;51.340;8.288;2022-10-16T13:49:41;1.80;;;1.00;;
9160;SDS011;4615;51.340;8.288;2022-10-16T13:52:16;2.20;;;0.73;;
9160;SDS011;4615;51.340;8.288;2022-10-16T13:54:43;0.87;;;0.80;;
9160;SDS011;4615;51.340;8.288;2022-10-16T13:57:11;2.47;;;0.80;;
9160;SDS011;4615;51.340;8.288;2022-10-16T13:59:38;1.10;;;0.90;;
9160;SDS011;4615;51.340;8.288;2022-10-16T14:02:05;1.47;;;0.67;;
9160;SDS011;4615;51.340;8.288;2022-10-16T14:04:34;1.40;;;0.83;;
9160;SDS011;4615;51.340;8.288;2022-10-16T14:07:04;0.77;;;0.77;;
9160;SDS011;4615;51.340;8.288;2022-10-16T14:09:32;1.60;;;0.80;;
9160;SDS011;4615;51.340;8.288;2022-10-16T14:12:00;1.00;;;0.80;;
9160;SDS011;4615;51.340;8.288;2022-10-16T14:14:34;1.67;;;0.73;;
9160;SDS011;4615;51.340;8.288;2022-10-16T14:17:01;3.10;;;0.83;;
9160;SDS011;4615;51.340;8.288;2022-10-16T14:19:28;0.60;;;0.60;;
9160;SDS011;4615;51.340;8.288;2022-10-16T14:21:56;1.70;;;0.73;;
9160;SDS011;4615;51.340;8.288;2022-10-16T14:24:25;1.07;;;0.90;;
9160;SDS011;4615;51.340;8.288;2022-10-16T14:26:53;1.10;;;0.90;;
9160;SDS011;4615;51.340;8.288;2022-10-16T14:29:21;1.50;;;0.70;;
9160;SDS011;4615;51.340;8.288;2022-10-16T14:31:55;2.63;;;0.93;;
9160;SDS011;4615;51.340;8.288;2022-10-16T14:34:23;1.30;;;0.80;;
9160;SDS011;4615;51.340;8.288;2022-10-16T14:36:50;1.87;;;1.10;;
9160;SDS011;4615;51.340;8.288;2022-10-16T14:39:17;1.90;;;1.00;;
9160;SDS011;4615;51.340;8.288;2022-10-16T14:41:45;1.57;;;1.20;;
9160;SDS011;4615;51.340;8.288;2022-10-16T14:44:13;1.23;;;0.83;;
9160;SDS011;4615;51.340;8.288;2022-10-16T14:46:40;0.93;;;0.93;;
9160;SDS011;4615;51.340;8.288;2022-10-16T14:49:13;2.97;;;0.90;;
9160;SDS011;4615;51.340;8.288;2022-10-16T14:51:41;1.93;;;0.70;;
9160;SDS011;4615;51.340;8.288;2022-10-16T14:54:10;1.27;;;1.00;;
9160;SDS011;4615;51.340;8.288;2022-10-16T14:56:41;1.27;;;0.80;;
9160;SDS011;4615;51.340;8.288;2022-10-16T14:59:08;3.63;;;1.07;;
9160;SDS011;4615;51.340;8.288;2022-10-16T15:01:40;1.20;;;0.90;;
9160;SDS011;4615;51.340;8.288;2022-10-16T15:04:09;1.97;;;0.90;;
9160;SDS011;4615;51.340;8.288;2022-10-16T15:06:37;0.70;;;0.70;;
9160;SDS011;4615;51.340;8.288;2022-10-16T15:09:04;1.13;;;0.80;;
9160;SDS011;4615;51.340;8.288;2022-10-16T15:11:30;0.70;;;0.70;;
9160;SDS011;4615;51.340;8.288;2022-10-16T15:13:58;0.80;;;0.77;;
9160;SDS011;4615;51.340;8.288;2022-10-16T15:16:24;3.73;;;0.80;;
9160;SDS011;4615;51.340;8.288;2022-10-16T15:18:52;4.10;;;0.90;;
9160;SDS011;4615;51.340;8.288;2022-10-16T15:21:21;1.30;;;0.70;;
9160;SDS011;4615;51.340;8.288;2022-10-16T15:23:48;1.03;;;0.90;;
9160;SDS011;4615;51.340;8.288;2022-10-16T15:26:15;1.17;;;0.80;;
9160;SDS011;4615;51.340;8.288;2022-10-16T15:28:41;1.40;;;1.00;;